Time;durP1;ratioP1;P1;durP2;ratioP2;P2;SDS_P1;SDS_P2;PMS_P1;PMS_P2;Temp;Humidity;BMP_temperature;BMP_pressure;BME280_temperature;BME280_humidity;BME280_pressure;Samples;Min_cycle;Max_cycle;Signal;HPM_P1;HPM_P2
2023/02/13 00:02:00;;;;;;;33.90;16.50;;;;;;;4.35;100.00;102374.88;103503;1282;98055;-76
2023/02/13 00:04:44;;;;;;;33.40;17.20;;;;;;;4.36;100.00;102371.34;103611;1280;101367;-76
2023/02/13 00:07:29;;;;;;;33.30;16.70;;;;;;;4.35;100.00;102371.16;103555;1282;99197;-75
2023/02/13 00:10:14;;;;;;;35.90;17.40;;;;;;;4.35;100.00;102366.44;103542;1278;99193;-78
2023/02/13 00:12:58;;;;;;;35.90;17.30;;;;;;;4.35;100.00;102365.02;103485;1282;98050;-75
2023/02/13 00:15:43;;;;;;;34.20;17.30;;;;;;;4.35;100.00;102366.61;103645;1280;98002;-76
2023/02/13 00:18:29;;;;;;;40.20;19.20;;;;;;;4.35;100.00;102363.58;103607;1282;102393;-75
2023/02/13 00:21:13;;;;;;;36.80;16.20;;;;;;;4.36;100.00;102362.08;103573;1280;99187;-76
2023/02/13 00:23:58;;;;;;;36.10;16.80;;;;;;;4.37;100.00;102358.67;103615;1277;98004;-73
2023/02/13 00:26:42;;;;;;;35.60;18.40;;;;;;;4.38;100.00;102359.50;103518;1282;99667;-77
2023/02/13 00:29:27;;;;;;;43.00;19.40;;;;;;;4.38;100.00;102361.80;103637;1279;99852;-75
2023/02/13 00:32:13;;;;;;;35.60;17.20;;;;;;;4.39;100.00;102360.66;103602;1281;102645;-74
2023/02/13 00:34:58;;;;;;;34.90;17.70;;;;;;;4.39;100.00;102367.88;103633;1280;108244;-75
2023/02/13 00:37:42;;;;;;;33.30;16.30;;;;;;;4.42;100.00;102368.08;103391;1280;99011;-74
2023/02/13 00:40:27;;;;;;;34.80;17.30;;;;;;;4.42;100.00;102368.91;103599;1278;98885;-75
2023/02/13 00:43:12;;;;;;;35.90;17.50;;;;;;;4.42;100.00;102364.66;103657;1282;98008;-75
2023/02/13 00:46:00;;;;;;;35.60;17.00;;;;;;;4.43;100.00;102360.17;103629;1282;101438;-77
2023/02/13 00:48:45;;;;;;;33.20;18.40;;;;;;;4.43;100.00;102360.73;103428;1280;100307;-75
2023/02/13 00:51:29;;;;;;;37.20;16.50;;;;;;;4.43;100.00;102358.76;103576;1282;97994;-76
2023/02/13 00:54:16;;;;;;;30.20;17.00;;;;;;;4.44;100.00;102358.04;103605;1279;98047;-74
2023/02/13 00:57:02;;;;;;;35.50;17.60;;;;;;;4.44;100.00;102354.13;103525;1280;98029;-75
2023/02/13 00:59:47;;;;;;;28.90;17.70;;;;;;;4.44;100.00;102347.00;103562;1279;102657;-76
2023/02/13 01:02:35;;;;;;;31.10;16.80;;;;;;;4.44;100.00;102354.44;103552;1280;100643;-76
2023/02/13 01:05:19;;;;;;;35.10;17.20;;;;;;;4.44;100.00;102359.05;103537;1282;98050;-75
2023/02/13 01:08:05;;;;;;;37.00;17.40;;;;;;;4.45;100.00;102358.83;103522;1280;98114;-74
2023/02/13 01:10:51;;;;;;;40.10;17.70;;;;;;;4.46;100.00;102356.31;103455;1282;99765;-75
2023/02/13 01:13:36;;;;;;;32.20;17.60;;;;;;;4.45;100.00;102353.66;103435;1282;101443;-73
2023/02/13 01:16:20;;;;;;;32.10;17.60;;;;;;;4.46;100.00;102352.77;103644;1280;99270;-75
2023/02/13 01:19:05;;;;;;;41.10;17.80;;;;;;;4.45;100.00;102354.55;103588;1282;98815;-75
2023/02/13 01:21:50;;;;;;;35.30;17.20;;;;;;;4.45;100.00;102349.12;103526;1281;97990;-77
2023/02/13 01:24:36;;;;;;;40.40;17.00;;;;;;;4.46;100.00;102350.26;103612;1281;98538;-75
2023/02/13 01:27:21;;;;;;;35.80;18.80;;;;;;;4.47;100.00;102345.39;103530;1279;101451;-77
2023/02/13 01:30:12;;;;;;;35.90;18.00;;;;;;;4.49;100.00;102343.50;103535;1279;100566;-77
2023/02/13 01:32:56;;;;;;;38.50;18.30;;;;;;;4.50;100.00;102344.48;103490;1280;98014;-76
2023/02/13 01:35:41;;;;;;;36.70;17.60;;;;;;;4.52;100.00;102340.83;103511;1280;98423;-76
2023/02/13 01:38:27;;;;;;;33.70;17.00;;;;;;;4.54;100.00;102340.70;103487;1282;99774;-75
2023/02/13 01:41:11;;;;;;;33.70;17.70;;;;;;;4.55;100.00;102338.88;103574;1280;102677;-76
2023/02/13 01:43:59;;;;;;;31.70;16.20;;;;;;;4.55;100.00;102340.27;103524;1282;99264;-77
2023/02/13 01:46:45;;;;;;;42.20;16.80;;;;;;;4.56;100.00;102339.66;103551;1282;98028;-76
2023/02/13 01:49:29;;;;;;;32.30;16.40;;;;;;;4.57;100.00;102340.33;103506;1280;98018;-75
2023/02/13 01:52:16;;;;;;;36.40;16.50;;;;;;;4.57;100.00;102340.61;103582;1281;98434;-76
2023/02/13 01:55:01;;;;;;;34.10;17.00;;;;;;;4.58;100.00;102342.84;103598;1280;102087;-77
2023/02/13 01:57:58;;;;;;;32.30;17.60;;;;;;;4.58;100.00;102342.86;103601;1282;100610;-77
2023/02/13 02:00:48;;;;;;;33.40;16.00;;;;;;;4.59;100.00;102340.83;103352;1285;98136;-76
2023/02/13 02:03:38;;;;;;;26.40;12.90;;;;;;;4.60;100.00;102336.88;104935;1280;98007;-76
2023/02/13 02:06:33;;;;;;;28.10;16.40;;;;;;;4.60;100.00;102334.77;103487;1279;97948;-75
2023/02/13 02:09:22;;;;;;;31.90;16.80;;;;;;;4.61;100.00;102337.36;103611;1281;101422;-75
2023/02/13 02:12:18;;;;;;;34.50;17.30;;;;;;;4.62;100.00;102336.58;103481;1280;100307;-76
2023/02/13 02:15:05;;;;;;;41.00;17.90;;;;;;;4.62;100.00;102341.52;103547;1282;97944;-74
2023/02/13 02:17:50;;;;;;;32.40;16.70;;;;;;;4.63;100.00;102345.73;103418;1282;98129;-76
2023/02/13 02:21:00;;;;;;;34.20;17.00;;;;;;;4.64;100.00;102345.64;103388;1282;98545;-74
2023/02/13 02:24:13;;;;;;;34.40;17.30;;;;;;;4.64;100.00;102339.82;103530;1280;103086;-74
2023/02/13 02:27:45;;;;;;;26.60;15.70;;;;;;;4.62;100.00;102340.95;103575;1282;99362;-75
2023/02/13 02:30:54;;;;;;;28.80;15.60;;;;;;;4.64;100.00;102339.98;103547;1279;97891;-78
2023/02/13 02:33:46;;;;;;;35.50;16.80;;;;;;;4.65;100.00;102330.36;103438;1282;97995;-76
2023/02/13 02:36:40;;;;;;;32.70;17.30;;;;;;;4.64;100.00;102331.84;103482;1282;97995;-75
2023/02/13 02:39:30;;;;;;;33.50;18.20;;;;;;;4.63;100.00;102336.70;103512;1289;102295;-75
2023/02/13 02:42:28;;;;;;;34.00;16.40;;;;;;;4.63;100.00;102337.23;103597;1279;100401;-76
2023/02/13 02:45:34;;;;;;;33.20;16.20;;;;;;;4.64;100.00;102335.18;103501;1281;99216;-76
2023/02/13 02:51:47;;;;;;;31.60;16.90;;;;;;;4.65;100.00;102336.69;103596;1279;98210;-76
2023/02/13 03:07:44;;;;;;;33.00;15.30;;;;;;;4.71;100.00;102355.75;103707;1279;98109;-76
2023/02/13 03:13:45;;;;;;;32.80;14.90;;;;;;;4.70;100.00;102359.01;103911;1282;100755;-77
2023/02/13 03:23:15;;;;;;;25.30;15.10;;;;;;;4.71;100.00;102363.53;103625;1280;98404;-75
2023/02/13 03:26:20;;;;;;;30.10;15.80;;;;;;;4.72;100.00;102367.23;103573;1279;102454;-77
2023/02/13 03:33:00;;;;;;;36.00;17.10;;;;;;;4.72;100.00;102367.77;103655;1283;99143;-74
2023/02/13 03:39:19;;;;;;;34.40;17.40;;;;;;;4.73;100.00;102366.11;103602;1282;100949;-75
2023/02/13 03:42:10;;;;;;;35.00;19.00;;;;;;;4.72;100.00;102362.24;103490;1280;101491;-75
2023/02/13 03:50:04;;;;;;;33.40;17.90;;;;;;;4.73;100.00;102363.98;103578;1280;99286;-77
2023/02/13 03:51:28;;;;;;;33.10;18.30;;;;;;;4.73;100.00;102364.68;103622;1280;98018;-76
2023/02/13 04:00:41;;;;;;;38.70;22.60;;;;;;;4.73;100.00;102358.50;103547;1282;99165;-78
2023/02/13 04:03:46;;;;;;;39.60;20.40;;;;;;;4.72;100.00;102353.08;103521;1281;98397;-77
2023/02/13 04:06:56;;;;;;;37.40;20.50;;;;;;;4.72;100.00;102352.51;103499;1281;98565;-76
2023/02/13 04:09:42;;;;;;;35.90;19.40;;;;;;;4.71;100.00;102349.75;103623;1282;98005;-76
2023/02/13 04:12:50;;;;;;;34.30;18.90;;;;;;;4.72;100.00;102346.72;103513;1280;101465;-76
2023/02/13 04:15:42;;;;;;;36.80;19.20;;;;;;;4.72;100.00;102341.58;103489;1291;99292;-76
2023/02/13 04:18:32;;;;;;;39.90;21.20;;;;;;;4.73;100.00;102341.14;103621;1280;98549;-76
2023/02/13 04:21:16;;;;;;;32.50;18.90;;;;;;;4.75;100.00;102344.35;103504;1282;97998;-74
2023/02/13 04:24:02;;;;;;;32.70;20.00;;;;;;;4.75;100.00;102343.66;103645;1282;98502;-76
2023/02/13 04:26:46;;;;;;;34.90;19.10;;;;;;;4.75;100.00;102346.50;103698;1290;102690;-75
2023/02/13 04:29:31;;;;;;;34.00;18.70;;;;;;;4.75;100.00;102346.98;103585;1282;99535;-75
2023/02/13 04:32:16;;;;;;;32.50;18.90;;;;;;;4.76;100.00;102344.67;103478;1282;98122;-76
2023/02/13 04:35:00;;;;;;;31.60;19.80;;;;;;;4.75;100.00;102346.09;103499;1281;98063;-77
2023/02/13 04:37:45;;;;;;;34.40;17.50;;;;;;;4.76;100.00;102349.78;103586;1280;98478;-77
2023/02/13 04:40:29;;;;;;;32.40;18.00;;;;;;;4.75;100.00;102352.83;103522;1282;102721;-77
2023/02/13 04:43:14;;;;;;;36.90;19.90;;;;;;;4.76;100.00;102357.76;103590;1283;99891;-76
2023/02/13 04:45:59;;;;;;;42.80;22.90;;;;;;;4.77;100.00;102355.94;103449;1279;98631;-75
2023/02/13 04:48:44;;;;;;;37.40;22.10;;;;;;;4.77;100.00;102358.92;103607;1282;98041;-75
2023/02/13 04:51:29;;;;;;;38.60;20.40;;;;;;;4.77;100.00;102357.30;103498;1280;98648;-75
2023/02/13 04:54:14;;;;;;;33.20;17.90;;;;;;;4.77;100.00;102363.83;103530;1282;101503;-77
2023/02/13 04:56:58;;;;;;;36.80;19.50;;;;;;;4.77;100.00;102361.23;103465;1282;100539;-76
2023/02/13 04:59:43;;;;;;;34.30;17.60;;;;;;;4.77;100.00;102361.25;103611;1280;99654;-75
2023/02/13 05:02:30;;;;;;;33.70;19.20;;;;;;;4.76;100.00;102363.02;103635;1282;98015;-77
2023/02/13 05:05:15;;;;;;;37.00;19.30;;;;;;;4.77;100.00;102361.36;105873;1281;98760;-77
2023/02/13 05:08:00;;;;;;;36.60;19.70;;;;;;;4.79;100.00;102360.52;103640;1282;101353;-77
2023/02/13 05:10:45;;;;;;;33.70;16.80;;;;;;;4.80;100.00;102353.75;103447;1284;99127;-76
2023/02/13 05:13:30;;;;;;;30.20;16.90;;;;;;;4.79;100.00;102350.78;103549;1281;98136;-78
2023/02/13 05:16:14;;;;;;;30.40;17.90;;;;;;;4.79;100.00;102351.66;103529;1282;97998;-76
2023/02/13 05:18:59;;;;;;;33.30;17.60;;;;;;;4.79;100.00;102348.34;103589;1282;98037;-76
2023/02/13 05:24:47;;;;;;;31.50;18.10;;;;;;;4.80;100.00;102347.75;103488;1279;99949;-74
2023/02/13 05:27:32;;;;;;;33.90;18.60;;;;;;;4.81;100.00;102353.30;103623;1279;99161;-76
2023/02/13 05:30:16;;;;;;;29.40;17.30;;;;;;;4.81;100.00;102353.30;103557;1285;98001;-76
2023/02/13 05:33:01;;;;;;;32.40;17.40;;;;;;;4.83;100.00;102352.80;103605;1280;98472;-76
2023/02/13 05:35:46;;;;;;;29.90;17.50;;;;;;;4.83;100.00;102354.21;103520;1282;101449;-76
2023/02/13 05:38:30;;;;;;;37.90;18.80;;;;;;;4.83;100.00;102357.61;103601;1282;100084;-74
2023/02/13 05:41:15;;;;;;;32.40;18.00;;;;;;;4.84;100.00;102363.52;103607;1282;98023;-76
2023/02/13 05:44:00;;;;;;;30.00;16.80;;;;;;;4.85;100.00;102366.98;103642;1279;97918;-76
2023/02/13 05:46:45;;;;;;;29.50;15.90;;;;;;;4.86;100.00;102366.59;103694;1282;97999;-75
2023/02/13 05:49:29;;;;;;;31.00;18.20;;;;;;;4.87;100.00;102365.11;103767;1282;101746;-75
2023/02/13 05:52:14;;;;;;;35.50;18.30;;;;;;;4.88;100.00;102366.11;103894;1280;99145;-76
2023/02/13 05:54:58;;;;;;;36.60;17.00;;;;;;;4.87;100.00;102370.39;103916;1282;99240;-76
2023/02/13 05:57:43;;;;;;;31.60;17.50;;;;;;;4.87;100.00;102368.63;103677;1282;98402;-76
2023/02/13 06:00:28;;;;;;;35.30;16.70;;;;;;;4.87;100.00;102369.13;103706;1282;97857;-75
2023/02/13 06:03:13;;;;;;;30.60;16.30;;;;;;;4.87;100.00;102375.02;103618;1282;101367;-76
2023/02/13 06:05:59;;;;;;;31.30;17.40;;;;;;;4.88;100.00;102372.46;103662;1282;99151;-76
2023/02/13 06:08:43;;;;;;;31.60;16.90;;;;;;;4.89;100.00;102368.69;103663;1280;98011;-75
2023/02/13 06:11:28;;;;;;;29.90;15.60;;;;;;;4.91;100.00;102368.39;103607;1284;99291;-76
2023/02/13 06:14:13;;;;;;;32.10;16.60;;;;;;;4.91;100.00;102368.50;103641;1282;98000;-75
2023/02/13 06:16:59;;;;;;;37.10;19.00;;;;;;;4.93;100.00;102366.08;103466;1282;102613;-75
2023/02/13 06:19:44;;;;;;;31.60;17.60;;;;;;;4.94;100.00;102366.00;103587;1282;99248;-74
2023/02/13 06:22:29;;;;;;;26.60;15.60;;;;;;;4.94;100.00;102370.76;103642;1280;97940;-75
2023/02/13 06:25:13;;;;;;;35.10;16.60;;;;;;;4.94;100.00;102378.02;103629;1280;97975;-75
2023/02/13 06:27:58;;;;;;;28.20;15.30;;;;;;;4.94;100.00;102381.02;103578;1281;98700;-76
2023/02/13 06:30:43;;;;;;;32.30;16.70;;;;;;;4.96;100.00;102383.79;103644;1282;101411;-74
2023/02/13 06:33:28;;;;;;;29.80;15.70;;;;;;;4.96;100.00;102383.96;103680;1281;99175;-76
2023/02/13 06:36:13;;;;;;;32.30;14.50;;;;;;;4.96;100.00;102387.63;103510;1280;98926;-76
2023/02/13 06:38:58;;;;;;;32.00;16.10;;;;;;;4.96;100.00;102387.43;103602;1282;97911;-74
2023/02/13 06:41:42;;;;;;;28.90;15.00;;;;;;;4.97;100.00;102390.93;103751;1280;98599;-75
2023/02/13 06:44:27;;;;;;;24.80;14.80;;;;;;;4.99;100.00;102393.29;103629;1282;101431;-75
2023/02/13 06:47:12;;;;;;;23.90;14.00;;;;;;;5.00;100.00;102392.52;103566;1279;100449;-75
2023/02/13 06:49:57;;;;;;;28.30;14.40;;;;;;;5.00;100.00;102389.14;103505;1282;99042;-76
2023/02/13 06:52:50;;;;;;;26.10;13.50;;;;;;;4.99;100.00;102389.36;103422;1282;98198;-75
2023/02/13 06:55:35;;;;;;;25.40;14.30;;;;;;;4.99;100.00;102393.29;103604;1280;99619;-76
2023/02/13 06:58:21;;;;;;;27.90;13.70;;;;;;;4.98;100.00;102393.67;103658;1282;102813;-75
2023/02/13 07:01:06;;;;;;;30.70;13.50;;;;;;;4.98;100.00;102395.11;103563;1282;101011;-74
2023/02/13 07:03:51;;;;;;;23.60;12.70;;;;;;;4.98;100.00;102392.97;103555;1299;97986;-77
2023/02/13 07:06:35;;;;;;;29.10;14.30;;;;;;;4.99;100.00;102389.75;103505;1282;98007;-75
2023/02/13 07:09:20;;;;;;;25.50;13.30;;;;;;;4.99;100.00;102391.68;103575;1282;98578;-75
2023/02/13 07:12:06;;;;;;;23.10;12.20;;;;;;;5.00;100.00;102387.91;103534;1282;101367;-74
2023/02/13 07:14:51;;;;;;;21.90;12.10;;;;;;;5.01;100.00;102391.70;103462;1282;100427;-77
2023/02/13 07:17:36;;;;;;;24.40;11.90;;;;;;;5.02;100.00;102392.02;103578;1280;98000;-75
2023/02/13 07:20:20;;;;;;;19.60;11.40;;;;;;;5.02;100.00;102386.48;103582;1283;98007;-77
2023/02/13 07:23:05;;;;;;;23.10;11.70;;;;;;;5.04;100.00;102390.77;103608;1283;98895;-75
2023/02/13 07:25:50;;;;;;;19.60;11.80;;;;;;;5.07;100.00;102392.34;103582;1282;102116;-75
2023/02/13 07:28:35;;;;;;;24.60;12.20;;;;;;;5.09;100.00;102392.21;103611;1283;99295;-76
2023/02/13 07:31:20;;;;;;;25.60;11.20;;;;;;;5.12;100.00;102392.70;103490;1282;99191;-75
2023/02/13 07:34:05;;;;;;;22.70;12.50;;;;;;;5.14;100.00;102389.16;103699;1282;99288;-77
2023/02/13 07:36:50;;;;;;;23.80;12.00;;;;;;;5.19;100.00;102391.66;103528;1279;97989;-75
2023/02/13 07:39:37;;;;;;;20.50;11.80;;;;;;;5.23;100.00;102389.80;103613;1280;102396;-75
2023/02/13 07:42:22;;;;;;;21.00;11.60;;;;;;;5.26;100.00;102391.34;103740;1283;99183;-75
2023/02/13 07:45:07;;;;;;;22.30;11.00;;;;;;;5.30;100.00;102395.50;103719;1283;99298;-75
2023/02/13 07:47:55;;;;;;;19.40;10.80;;;;;;;5.32;100.00;102391.59;103539;1280;97989;-76
2023/02/13 07:50:39;;;;;;;16.60;11.40;;;;;;;5.34;100.00;102385.83;103435;1282;99888;-75
2023/02/13 07:53:24;;;;;;;18.00;10.50;;;;;;;5.36;100.00;102386.01;103575;1280;101468;-76
2023/02/13 07:56:10;;;;;;;17.20;10.00;;;;;;;5.38;100.00;102384.80;103607;1283;100491;-76
2023/02/13 07:58:54;;;;;;;12.60;7.90;;;;;;;5.40;100.00;102388.55;103508;1279;99634;-75
2023/02/13 08:01:39;;;;;;;15.40;8.40;;;;;;;5.43;100.00;102386.02;103409;1283;99307;-75
2023/02/13 08:04:23;;;;;;;18.60;8.40;;;;;;;5.47;100.00;102388.73;103615;1282;98485;-76
2023/02/13 08:07:08;;;;;;;14.40;8.90;;;;;;;5.52;100.00;102384.49;103478;1279;101494;-74
2023/02/13 08:12:57;;;;;;;16.20;8.20;;;;;;;5.66;100.00;102385.92;103585;1281;98132;-76
2023/02/13 08:15:45;;;;;;;14.60;7.60;;;;;;;5.75;100.00;102386.52;103427;1282;97987;-76
2023/02/13 08:18:30;;;;;;;23.60;9.70;;;;;;;5.82;100.00;102384.59;103642;1280;98001;-76
2023/02/13 08:21:15;;;;;;;15.40;9.50;;;;;;;5.85;100.00;102380.13;103555;1283;101574;-74
2023/02/13 08:23:59;;;;;;;20.00;11.10;;;;;;;5.84;100.00;102378.04;103554;1280;99202;-76
2023/02/13 08:26:44;;;;;;;21.70;14.50;;;;;;;5.83;100.00;102377.23;103512;1280;98091;-76
2023/02/13 08:29:29;;;;;;;15.70;9.50;;;;;;;5.80;100.00;102376.21;103511;1282;100131;-75
2023/02/13 08:32:14;;;;;;;18.60;8.70;;;;;;;5.77;100.00;102371.98;103552;1282;97962;-75
2023/02/13 08:34:58;;;;;;;15.80;10.30;;;;;;;5.74;100.00;102373.09;103482;1280;101435;-74
2023/02/13 08:37:43;;;;;;;18.10;9.10;;;;;;;5.72;100.00;102373.43;103522;1282;100161;-76
2023/02/13 08:40:27;;;;;;;15.90;9.10;;;;;;;5.72;100.00;102372.59;103569;1284;98932;-75
2023/02/13 08:43:12;;;;;;;14.90;9.30;;;;;;;5.70;100.00;102375.70;103552;1283;99426;-75
2023/02/13 08:45:58;;;;;;;14.30;9.00;;;;;;;5.70;100.00;102375.73;103488;1283;98661;-76
2023/02/13 08:48:43;;;;;;;14.90;9.80;;;;;;;5.68;100.00;102375.15;103505;1283;101377;-76
2023/02/13 08:51:27;;;;;;;15.90;10.00;;;;;;;5.66;100.00;102368.00;103534;1281;100688;-75
2023/02/13 08:54:12;;;;;;;17.80;9.90;;;;;;;5.65;100.00;102370.58;103424;1279;98049;-80
2023/02/13 08:56:57;;;;;;;19.00;10.10;;;;;;;5.66;100.00;102371.36;103554;1280;99178;-76
2023/02/13 08:59:41;;;;;;;25.30;13.80;;;;;;;5.69;100.00;102363.93;103689;1283;98545;-77
2023/02/13 09:02:26;;;;;;;22.50;12.70;;;;;;;5.69;100.00;102363.77;103970;1279;102781;-80
2023/02/13 09:05:11;;;;;;;22.30;13.20;;;;;;;5.69;100.00;102369.25;104588;1280;99936;-85
2023/02/13 09:08:03;;;;;;;20.40;11.80;;;;;;;5.68;100.00;102363.47;104507;1283;99481;-83
2023/02/13 09:10:55;;;;;;;18.30;11.80;;;;;;;5.67;100.00;102366.33;104979;1280;97890;-80
2023/02/13 09:13:40;;;;;;;20.70;11.60;;;;;;;5.68;100.00;102368.61;104770;1281;97251;-84
2023/02/13 09:16:25;;;;;;;20.30;12.30;;;;;;;5.67;100.00;102366.55;104921;1282;102280;-81
2023/02/13 09:19:09;;;;;;;20.60;12.30;;;;;;;5.68;100.00;102359.94;104805;1282;99092;-82
2023/02/13 09:21:54;;;;;;;21.30;14.40;;;;;;;5.68;100.00;102358.36;104863;1283;98272;-83
2023/02/13 09:24:39;;;;;;;26.90;15.90;;;;;;;5.67;100.00;102358.04;104561;1285;97955;-81
2023/02/13 09:27:24;;;;;;;28.30;17.10;;;;;;;5.67;100.00;102358.20;104514;1282;98047;-81
2023/02/13 09:30:09;;;;;;;20.50;13.50;;;;;;;5.67;100.00;102353.63;104606;1282;102774;-81
2023/02/13 09:32:54;;;;;;;19.90;12.30;;;;;;;5.66;100.00;102348.73;104554;1279;100253;-87
2023/02/13 09:35:41;;;;;;;24.20;13.80;;;;;;;5.67;100.00;102355.73;104254;1284;97916;-83
2023/02/13 09:38:26;;;;;;;18.30;13.40;;;;;;;5.68;100.00;102354.39;104168;1283;98004;-82
2023/02/13 09:41:25;;;;;;;20.80;13.30;;;;;;;5.70;100.00;102352.16;104310;1282;99738;-83
2023/02/13 09:44:09;;;;;;;23.00;13.60;;;;;;;5.73;100.00;102354.60;104770;1280;102745;-81
2023/02/13 09:46:55;;;;;;;23.40;13.90;;;;;;;5.76;100.00;102346.39;104735;1279;99196;-83
2023/02/13 09:49:45;;;;;;;24.60;15.20;;;;;;;5.79;100.00;102346.52;104914;1282;98062;-84
2023/02/13 09:52:36;;;;;;;27.00;16.10;;;;;;;5.82;100.00;102345.77;104638;1285;97995;-81
2023/02/13 09:55:29;;;;;;;20.40;14.30;;;;;;;5.82;100.00;102344.10;104755;1283;98084;-81
2023/02/13 09:58:20;;;;;;;20.00;14.00;;;;;;;5.82;100.00;102341.98;104956;1279;101435;-84
2023/02/13 10:01:32;;;;;;;19.90;13.80;;;;;;;5.83;100.00;102342.14;105181;1283;101256;-82
2023/02/13 10:04:22;;;;;;;33.60;20.50;;;;;;;5.83;100.00;102347.11;104917;1279;99630;-80
2023/02/13 10:07:38;;;;;;;24.90;16.70;;;;;;;5.83;100.00;102348.16;105040;1280;98446;-81
2023/02/13 10:10:58;;;;;;;26.20;16.70;;;;;;;5.83;100.00;102351.85;104627;1282;98006;-83
2023/02/13 10:14:00;;;;;;;23.70;16.60;;;;;;;5.84;100.00;102355.89;104799;1280;102540;-89
2023/02/13 10:16:53;;;;;;;26.50;17.60;;;;;;;5.85;100.00;102363.45;103552;1280;99410;-77
2023/02/13 10:19:50;;;;;;;23.00;17.40;;;;;;;5.86;100.00;102364.11;103523;1293;98520;-77
2023/02/13 10:22:53;;;;;;;24.70;16.50;;;;;;;5.87;100.00;102365.83;103773;1282;97998;-78
2023/02/13 10:26:00;;;;;;;23.70;16.50;;;;;;;5.87;100.00;102362.08;103800;1280;98118;-79
2023/02/13 10:32:07;;;;;;;25.00;14.40;;;;;;;5.90;100.00;102360.04;103827;1283;100576;-77
2023/02/13 10:34:57;;;;;;;22.60;14.80;;;;;;;5.98;100.00;102352.52;103888;1283;101365;-77
2023/02/13 10:37:44;;;;;;;33.30;18.40;;;;;;;6.02;100.00;102350.83;103638;1283;98001;-77
2023/02/13 10:40:38;;;;;;;28.70;18.10;;;;;;;6.04;100.00;102345.05;104880;1278;98634;-79
2023/02/13 10:43:27;;;;;;;31.10;19.10;;;;;;;6.03;100.00;102341.34;104198;1279;101563;-79
2023/02/13 10:46:26;;;;;;;31.70;18.60;;;;;;;6.01;100.00;102341.33;104320;1282;99287;-78
2023/02/13 10:49:23;;;;;;;25.30;16.30;;;;;;;5.99;100.00;102340.80;104221;1278;98599;-79
2023/02/13 10:52:17;;;;;;;21.60;14.40;;;;;;;5.99;100.00;102336.52;104145;1283;98021;-79
2023/02/13 10:55:21;;;;;;;23.80;14.90;;;;;;;5.99;100.00;102332.45;104264;1280;98021;-78
2023/02/13 10:58:19;;;;;;;23.60;16.10;;;;;;;5.99;100.00;102330.63;104134;1280;102943;-79
2023/02/13 11:01:30;;;;;;;20.50;14.70;;;;;;;6.00;100.00;102324.67;104388;1282;100223;-79
2023/02/13 11:04:18;;;;;;;;;;;;;;;6.03;100.00;102322.16;103884;1282;97992;-77
2023/02/13 11:07:13;;;;;;;19.00;13.10;;;;;;;6.05;100.00;102314.05;103937;1279;98088;-78
2023/02/13 11:10:07;;;;;;;23.70;16.50;;;;;;;6.07;100.00;102309.86;103880;1282;98475;-77
2023/02/13 11:12:52;;;;;;;21.60;16.30;;;;;;;6.08;100.00;102308.00;103845;1279;102298;-79
2023/02/13 11:15:38;;;;;;;19.00;12.70;;;;;;;6.09;100.00;102310.76;103800;1282;99265;-79
2023/02/13 11:18:25;;;;;;;20.70;13.10;;;;;;;6.07;100.00;102319.92;104019;1282;99094;-77
2023/02/13 11:21:19;;;;;;;18.90;11.90;;;;;;;6.07;100.00;102320.62;103943;1280;98621;-78
2023/02/13 11:24:04;;;;;;;23.00;13.30;;;;;;;6.07;100.00;102311.22;103783;1282;98042;-78
2023/02/13 11:26:53;;;;;;;18.50;12.10;;;;;;;6.07;100.00;102310.17;103896;1282;101465;-78
2023/02/13 11:29:58;;;;;;;22.60;12.80;;;;;;;6.08;100.00;102312.26;103795;1280;99206;-78
2023/02/13 11:32:56;;;;;;;19.80;11.20;;;;;;;6.09;100.00;102312.81;103806;1279;99208;-78
2023/02/13 11:35:42;;;;;;;18.30;11.40;;;;;;;6.11;100.00;102308.06;103737;1282;98450;-80
2023/02/13 11:38:27;;;;;;;23.00;14.80;;;;;;;6.14;100.00;102303.77;103938;1282;98525;-78
2023/02/13 11:41:18;;;;;;;42.70;27.30;;;;;;;6.16;100.00;102292.60;103794;1280;101515;-77
2023/02/13 11:44:04;;;;;;;22.90;14.10;;;;;;;6.17;100.00;102287.59;103867;1282;101352;-78
2023/02/13 11:46:51;;;;;;;23.30;14.10;;;;;;;6.17;100.00;102289.69;103890;1282;99110;-79
2023/02/13 11:49:38;;;;;;;20.10;11.50;;;;;;;6.18;100.00;102291.43;103842;1279;98729;-78
2023/02/13 11:52:32;;;;;;;21.30;13.40;;;;;;;6.17;100.00;102296.26;103834;1282;97906;-79
2023/02/13 11:55:29;;;;;;;24.20;15.60;;;;;;;6.17;100.00;102297.35;103847;1279;101384;-78
2023/02/13 11:58:14;;;;;;;21.90;12.60;;;;;;;6.16;100.00;102294.90;103920;1280;99114;-77
2023/02/13 12:01:36;;;;;;;18.60;11.10;;;;;;;6.16;99.99;102297.02;103763;1283;98796;-78
2023/02/13 12:04:20;;;;;;;19.50;12.00;;;;;;;6.19;99.98;102294.33;103798;1282;97927;-79
2023/02/13 12:07:21;;;;;;;18.20;10.60;;;;;;;6.24;100.00;102286.52;103819;1279;98549;-78
2023/02/13 12:10:28;;;;;;;17.60;10.60;;;;;;;6.30;100.00;102283.55;103914;1290;101283;-80
2023/02/13 12:13:26;;;;;;;18.00;10.30;;;;;;;6.35;99.82;102280.67;103826;1282;100384;-80
2023/02/13 12:16:35;;;;;;;17.90;11.40;;;;;;;6.40;99.87;102270.53;103851;1280;98609;-78
2023/02/13 12:19:40;;;;;;;17.00;10.40;;;;;;;6.48;99.96;102262.14;103925;1279;98074;-77
2023/02/13 12:23:01;;;;;;;19.90;11.60;;;;;;;6.58;100.00;102257.20;103912;1282;98030;-79
2023/02/13 12:26:22;;;;;;;14.90;10.70;;;;;;;6.66;99.79;102261.88;103849;1279;102692;-77
2023/02/13 12:29:49;;;;;;;16.30;9.40;;;;;;;6.71;99.72;102263.06;103825;1280;100414;-79
2023/02/13 12:32:53;;;;;;;18.80;10.20;;;;;;;6.75;99.24;102264.42;103932;1282;98126;-77
2023/02/13 12:35:51;;;;;;;21.50;12.90;;;;;;;6.76;98.72;102263.58;103916;1282;97993;-79
2023/02/13 12:38:57;;;;;;;21.70;13.00;;;;;;;6.79;98.79;102260.52;104107;1279;98098;-79
2023/02/13 12:41:56;;;;;;;16.40;11.00;;;;;;;6.84;98.76;102255.65;103992;1279;102966;-79
2023/02/13 12:45:19;;;;;;;21.80;12.60;;;;;;;6.88;98.69;102249.42;103981;1281;100149;-78
2023/02/13 12:48:22;;;;;;;17.40;10.80;;;;;;;6.91;98.27;102249.20;103894;1278;99119;-78
2023/02/13 12:51:43;;;;;;;17.70;9.00;;;;;;;6.91;97.66;102253.65;103978;1278;97995;-79
2023/02/13 12:54:54;;;;;;;18.00;11.40;;;;;;;6.89;97.61;102250.75;103993;1282;97984;-79
2023/02/13 12:58:03;;;;;;;15.70;10.10;;;;;;;6.91;97.68;102245.49;104104;1281;102075;-79
2023/02/13 13:01:39;;;;;;;16.90;11.20;;;;;;;6.92;97.93;102243.10;104058;1282;99288;-80
2023/02/13 13:04:45;;;;;;;22.90;15.30;;;;;;;6.90;97.70;102233.46;104041;1282;97936;-78
2023/02/13 13:07:45;;;;;;;24.20;14.60;;;;;;;6.87;97.57;102224.84;103884;1282;98004;-78
2023/02/13 13:10:37;;;;;;;23.90;11.90;;;;;;;6.83;97.23;102226.09;103972;1280;98456;-78
2023/02/13 13:13:35;;;;;;;18.20;11.00;;;;;;;6.81;97.31;102227.27;103992;1279;102761;-79
2023/02/13 13:16:45;;;;;;;20.30;11.00;;;;;;;6.79;97.06;102218.03;104142;1279;100460;-78
2023/02/13 13:19:56;;;;;;;18.70;11.20;;;;;;;6.79;97.40;102213.45;103978;1282;97972;-79
2023/02/13 13:22:52;;;;;;;18.40;10.40;;;;;;;6.79;97.33;102208.50;103967;1281;98058;-78
2023/02/13 13:25:55;;;;;;;17.00;9.20;;;;;;;6.76;96.92;102207.48;103909;1279;98492;-79
2023/02/13 13:28:43;;;;;;;19.10;10.50;;;;;;;6.73;96.61;102208.45;103920;1280;101394;-78
2023/02/13 13:31:29;;;;;;;18.20;10.30;;;;;;;6.72;96.87;102201.43;103921;1279;99554;-78
2023/02/13 13:34:21;;;;;;;16.30;10.50;;;;;;;6.73;97.06;102194.27;104000;1282;99180;-79
2023/02/13 13:37:35;;;;;;;21.50;13.80;;;;;;;6.74;97.09;102190.22;104054;1279;97884;-77
2023/02/13 13:40:36;;;;;;;19.40;13.10;;;;;;;6.76;96.98;102185.41;104021;1279;98561;-78